createdAt,value
2019-03-15T00:01:05.253Z,97.10
2019-03-15T00:05:10.247Z,97.10
2019-03-15T00:09:15.231Z,97.20
2019-03-15T00:13:20.233Z,97.20
2019-03-15T00:17:25.219Z,97.00
2019-03-15T00:21:30.208Z,96.80
2019-03-15T00:25:35.198Z,96.50
2019-03-15T00:29:41.280Z,96.10
2019-03-15T00:33:46.231Z,95.60
2019-03-15T00:37:51.258Z,95.40
2019-03-15T00:41:56.265Z,95.40
2019-03-15T00:46:01.262Z,95.20
2019-03-15T00:50:09.033Z,95.20
2019-03-15T00:54:14.096Z,95.10
2019-03-15T00:58:19.077Z,94.70
2019-03-15T01:02:24.167Z,94.50
2019-03-15T01:06:29.148Z,94.60
2019-03-15T01:10:34.151Z,94.70
2019-03-15T01:14:39.142Z,94.40
2019-03-15T01:18:44.600Z,94.40
2019-03-15T01:22:49.609Z,94.20
2019-03-15T01:26:54.630Z,94.40
2019-03-15T01:30:59.611Z,94.30
2019-03-15T01:35:06.242Z,94.40
2019-03-15T01:39:11.210Z,94.40
2019-03-15T01:43:16.204Z,94.70
2019-03-15T01:47:22.166Z,95.80
2019-03-15T01:51:28.124Z,96.50
2019-03-15T01:55:33.105Z,96.90
2019-03-15T01:59:38.074Z,96.90
2019-03-15T02:03:43.062Z,97.00
2019-03-15T02:07:48.045Z,96.30
2019-03-15T02:11:53.053Z,96.40
2019-03-15T02:15:58.055Z,95.60
2019-03-15T02:20:03.383Z,94.80
2019-03-15T02:24:09.333Z,94.40
2019-03-15T02:28:14.397Z,94.00
2019-03-15T02:32:19.486Z,93.90
2019-03-15T02:36:25.451Z,93.50
2019-03-15T02:40:30.454Z,93.40
2019-03-15T02:44:35.425Z,93.50
2019-03-15T02:48:40.862Z,93.20
2019-03-15T02:52:47.192Z,93.30
2019-03-15T02:56:54.026Z,93.40
2019-03-15T03:01:00.107Z,93.20
2019-03-15T03:05:08.049Z,93.40
2019-03-15T03:09:13.177Z,93.50
2019-03-15T03:13:18.630Z,93.50
2019-03-15T03:17:23.539Z,93.40
2019-03-15T03:21:28.533Z,93.30
2019-03-15T03:25:33.529Z,93.30
2019-03-15T03:29:38.501Z,93.20
2019-03-15T03:33:43.510Z,93.00
2019-03-15T03:37:48.555Z,93.00
2019-03-15T03:41:53.617Z,93.10
2019-03-15T03:45:58.601Z,92.90
2019-03-15T03:50:08.514Z,92.60
2019-03-15T03:54:13.513Z,92.80
2019-03-15T03:58:18.505Z,92.80
2019-03-15T04:02:23.492Z,92.50
2019-03-15T04:06:28.482Z,92.40
2019-03-15T04:10:33.449Z,92.40
2019-03-15T04:14:38.445Z,92.40
2019-03-15T04:18:43.434Z,92.30
2019-03-15T04:22:48.484Z,92.40
2019-03-15T04:26:53.504Z,92.10
2019-03-15T04:30:58.522Z,92.10
2019-03-15T04:35:03.781Z,92.50
2019-03-15T04:39:08.782Z,92.10
2019-03-15T04:43:13.777Z,92.00
2019-03-15T04:47:19.356Z,91.70
2019-03-15T04:51:24.347Z,91.70
2019-03-15T04:55:29.305Z,91.40
2019-03-15T04:59:34.293Z,91.50
2019-03-15T05:03:39.317Z,91.80
2019-03-15T05:07:44.337Z,91.70
2019-03-15T05:11:49.329Z,91.80
2019-03-15T05:15:54.362Z,91.80
2019-03-15T05:19:59.354Z,91.70
2019-03-15T05:24:04.442Z,91.80
2019-03-15T05:28:09.500Z,92.00
2019-03-15T05:32:14.411Z,92.20
2019-03-15T05:36:19.390Z,92.50
2019-03-15T05:40:24.405Z,92.50
2019-03-15T05:44:29.460Z,92.80
2019-03-15T05:48:34.475Z,92.90
2019-03-15T05:52:40.523Z,93.00
2019-03-15T05:56:45.565Z,93.20
2019-03-15T06:00:50.534Z,93.30
2019-03-15T06:04:55.613Z,93.40
2019-03-15T06:09:00.717Z,93.20
2019-03-15T06:13:05.960Z,92.90
2019-03-15T06:17:10.976Z,92.30
2019-03-15T06:21:15.937Z,91.50
2019-03-15T06:25:21.231Z,89.40
2019-03-15T06:29:26.493Z,83.30
2019-03-15T06:33:31.770Z,82.90
2019-03-15T06:37:37.042Z,72.70
2019-03-15T06:41:42.301Z,66.30
2019-03-15T06:45:47.578Z,72.70
2019-03-15T06:49:52.853Z,77.70
2019-03-15T06:54:10.525Z,75.80
2019-03-15T06:58:05.107Z,64.00
2019-03-15T07:02:10.601Z,60.50
2019-03-15T07:06:15.863Z,63.90
2019-03-15T07:10:21.159Z,69.50
2019-03-15T07:14:27.522Z,67.00
2019-03-15T07:18:32.853Z,62.00
2019-03-15T07:22:38.138Z,61.80
2019-03-15T07:26:43.853Z,63.40
2019-03-15T07:30:49.333Z,65.60
2019-03-15T07:34:54.626Z,62.00
2019-03-15T07:38:59.924Z,64.00
2019-03-15T07:43:05.503Z,61.80
2019-03-15T07:47:10.830Z,55.50
2019-03-15T07:51:16.113Z,54.20
2019-03-15T07:55:21.418Z,50.80
2019-03-15T07:59:27.889Z,56.50
2019-03-15T08:03:33.447Z,59.20
2019-03-15T08:07:44.723Z,62.00
2019-03-15T08:11:45.666Z,62.10
2019-03-15T08:15:50.953Z,59.00
2019-03-15T08:19:56.273Z,55.80
2019-03-15T08:24:01.563Z,55.50
2019-03-15T08:28:06.893Z,57.50
2019-03-15T08:32:12.145Z,59.40
2019-03-15T08:36:20.162Z,58.60
2019-03-15T08:40:25.789Z,60.00
2019-03-15T08:44:31.405Z,60.00
2019-03-15T08:48:36.988Z,61.10
2019-03-15T08:52:42.354Z,60.60
2019-03-15T08:56:47.663Z,59.00
2019-03-15T09:00:52.943Z,58.00
2019-03-15T09:04:59.206Z,60.50
2019-03-15T09:09:07.598Z,57.90
2019-03-15T09:13:12.936Z,55.50
2019-03-15T09:17:20.037Z,53.50
2019-03-15T09:21:25.129Z,52.40
2019-03-15T09:25:30.481Z,53.60
2019-03-15T09:29:35.832Z,53.10
2019-03-15T09:33:41.115Z,54.60
2019-03-15T09:37:47.954Z,55.70
2019-03-15T09:41:54.258Z,57.10
2019-03-15T09:45:59.559Z,57.00
2019-03-15T09:50:20.682Z,57.90
2019-03-15T09:54:14.269Z,56.60
2019-03-15T09:58:19.535Z,56.90
2019-03-15T10:02:30.098Z,57.80
2019-03-15T10:06:31.800Z,58.10
2019-03-15T10:10:37.136Z,61.20
2019-03-15T10:14:42.770Z,59.40
2019-03-15T10:18:50.519Z,59.10
2019-03-15T10:23:05.550Z,58.20
2019-03-15T10:27:02.706Z,58.70
2019-03-15T10:31:08.000Z,61.50
2019-03-15T10:35:14.148Z,62.40
2019-03-15T10:39:19.429Z,60.00
2019-03-15T10:43:25.483Z,60.60
2019-03-15T10:47:30.766Z,63.40
2019-03-15T10:51:36.174Z,65.30
2019-03-15T10:55:41.444Z,73.70
2019-03-15T10:59:46.726Z,79.10
2019-03-15T11:03:52.386Z,82.10
2019-03-15T11:07:57.673Z,82.20
2019-03-15T11:12:02.966Z,87.70
2019-03-15T11:16:08.268Z,90.80
2019-03-15T11:20:13.969Z,91.90
2019-03-15T11:24:19.236Z,91.70
2019-03-15T11:28:26.393Z,92.40
2019-03-15T11:32:31.661Z,92.40
2019-03-15T11:36:36.937Z,92.00
2019-03-15T11:40:42.247Z,92.50
2019-03-15T11:44:47.526Z,91.50
2019-03-15T11:48:53.744Z,91.40
2019-03-15T11:52:58.999Z,91.60
2019-03-15T11:57:04.346Z,91.70
2019-03-15T12:01:09.627Z,92.70
2019-03-15T12:05:15.167Z,93.50
2019-03-15T12:09:20.420Z,93.30
2019-03-15T12:13:25.734Z,92.60
2019-03-15T12:17:31.037Z,93.60
2019-03-15T12:21:36.286Z,93.50
2019-03-15T12:25:41.634Z,93.40
2019-03-15T12:29:46.910Z,92.80
2019-03-15T12:33:52.149Z,93.60
2019-03-15T12:37:57.405Z,93.60
2019-03-15T12:42:02.775Z,93.30
2019-03-15T12:46:08.042Z,94.10
2019-03-15T12:50:14.459Z,94.10
2019-03-15T12:54:19.770Z,94.70
2019-03-15T12:58:25.039Z,94.70
2019-03-15T13:02:30.290Z,93.90
2019-03-15T13:06:35.560Z,94.20
2019-03-15T13:10:40.889Z,94.10
2019-03-15T13:14:46.296Z,94.40
2019-03-15T13:18:51.717Z,93.90
2019-03-15T13:22:57.291Z,94.20
2019-03-15T13:27:07.636Z,94.20
2019-03-15T13:31:10.401Z,94.30
2019-03-15T13:35:15.813Z,94.50
2019-03-15T13:39:21.970Z,94.70
2019-03-15T13:43:27.262Z,95.20
2019-03-15T13:47:32.547Z,94.80
2019-03-15T13:51:37.514Z,95.00
2019-03-15T13:55:42.782Z,95.00
2019-03-15T13:59:47.749Z,94.70
2019-03-15T14:03:53.007Z,94.60
2019-03-15T14:08:06.954Z,95.00
2019-03-15T14:12:04.951Z,95.10
2019-03-15T14:16:10.203Z,95.10
2019-03-15T14:20:15.475Z,94.80
2019-03-15T14:24:22.869Z,95.30
2019-03-15T14:28:27.692Z,95.70
2019-03-15T14:32:33.083Z,95.80
2019-03-15T14:36:38.378Z,95.70
2019-03-15T14:40:43.643Z,95.40
2019-03-15T14:44:48.876Z,95.70
2019-03-15T14:48:54.258Z,96.50
2019-03-15T14:52:59.525Z,96.60
2019-03-15T14:57:04.871Z,96.70
2019-03-15T15:01:10.118Z,96.90
2019-03-15T15:05:15.408Z,97.10
2019-03-15T15:09:21.762Z,97.40
2019-03-15T15:13:27.189Z,97.60
2019-03-15T15:17:32.433Z,97.70
2019-03-15T15:21:37.661Z,97.40
2019-03-15T15:25:42.654Z,97.50
2019-03-15T15:29:48.001Z,97.60
2019-03-15T15:33:53.261Z,97.50
2019-03-15T15:37:59.262Z,97.60
2019-03-15T15:42:04.600Z,97.50
2019-03-15T15:46:11.226Z,97.60
2019-03-15T15:50:16.999Z,97.60
2019-03-15T15:54:22.257Z,97.60
2019-03-15T15:58:27.551Z,97.50
2019-03-15T16:02:32.868Z,97.20
2019-03-15T16:06:38.124Z,97.20
2019-03-15T16:10:43.378Z,97.20
2019-03-15T16:14:48.624Z,97.30
2019-03-15T16:18:54.036Z,97.30
2019-03-15T16:22:59.557Z,97.30
2019-03-15T16:27:04.867Z,97.20
2019-03-15T16:31:10.133Z,97.30
2019-03-15T16:35:15.790Z,97.10
2019-03-15T16:39:21.132Z,96.70
2019-03-15T16:43:26.514Z,97.00
2019-03-15T16:47:31.838Z,97.00
2019-03-15T16:51:37.300Z,97.10
2019-03-15T16:55:42.815Z,97.20
2019-03-15T16:59:48.698Z,97.40
2019-03-15T17:03:54.574Z,97.70
2019-03-15T17:08:00.406Z,98.00
2019-03-15T17:12:06.566Z,98.10
2019-03-15T17:16:12.166Z,98.10
2019-03-15T17:20:17.702Z,98.10
2019-03-15T17:24:23.355Z,98.00
2019-03-15T17:28:29.553Z,98.00
2019-03-15T17:32:35.057Z,97.90
2019-03-15T17:36:40.805Z,97.90
2019-03-15T17:40:46.719Z,97.60
2019-03-15T17:44:52.141Z,97.60
2019-03-15T17:48:57.458Z,97.50
2019-03-15T17:53:02.743Z,97.40
2019-03-15T17:57:07.997Z,98.00
2019-03-15T18:01:13.287Z,98.40
2019-03-15T18:05:18.543Z,98.80
2019-03-15T18:09:23.821Z,98.80
2019-03-15T18:13:29.053Z,98.80
2019-03-15T18:17:34.401Z,98.80
2019-03-15T18:21:39.665Z,98.80
2019-03-15T18:25:44.993Z,98.70
2019-03-15T18:29:50.257Z,99.00
2019-03-15T18:33:55.514Z,99.60
2019-03-15T18:38:00.804Z,99.90
2019-03-15T18:42:06.072Z,99.90
2019-03-15T18:46:11.126Z,99.90
2019-03-15T18:50:21.509Z,99.90
2019-03-15T18:54:26.769Z,99.90
2019-03-15T18:58:32.013Z,99.90
2019-03-15T19:02:37.274Z,99.90
2019-03-15T19:06:42.539Z,99.90
2019-03-15T19:10:47.809Z,99.90
2019-03-15T19:14:53.142Z,99.90
2019-03-15T19:18:58.388Z,99.90
2019-03-15T19:23:03.721Z,99.90
2019-03-15T19:27:09.210Z,99.90
2019-03-15T19:31:14.673Z,99.90
2019-03-15T19:35:19.949Z,99.90
2019-03-15T19:39:24.945Z,99.90
2019-03-15T19:43:30.235Z,99.90
2019-03-15T19:47:35.962Z,99.90
2019-03-15T19:51:41.625Z,99.90
2019-03-15T19:55:46.753Z,99.90
2019-03-15T19:59:51.963Z,99.90
2019-03-15T20:03:57.152Z,99.90
2019-03-15T20:08:02.394Z,99.90
2019-03-15T20:12:07.379Z,99.90
2019-03-15T20:16:12.401Z,99.90
2019-03-15T20:20:18.960Z,99.90
2019-03-15T20:24:23.942Z,99.90
2019-03-15T20:28:28.997Z,99.90
2019-03-15T20:32:34.021Z,99.90
2019-03-15T20:36:39.510Z,99.90
2019-03-15T20:40:45.226Z,99.90
2019-03-15T20:44:50.246Z,99.90
2019-03-15T20:48:55.251Z,99.90
2019-03-15T20:53:08.592Z,99.90
2019-03-15T20:57:06.878Z,99.90
2019-03-15T21:01:11.876Z,99.90
2019-03-15T21:05:17.006Z,99.90
2019-03-15T21:09:21.977Z,99.90
2019-03-15T21:13:27.285Z,99.90
2019-03-15T21:17:32.241Z,99.90
2019-03-15T21:21:37.256Z,99.90
2019-03-15T21:25:42.250Z,99.90
2019-03-15T21:29:47.217Z,99.90
2019-03-15T21:33:52.222Z,99.90
2019-03-15T21:37:57.210Z,99.90
2019-03-15T21:42:02.202Z,99.90
2019-03-15T21:46:07.340Z,99.90
2019-03-15T21:50:14.505Z,99.90
2019-03-15T21:54:19.509Z,99.90
2019-03-15T21:58:24.496Z,99.90
2019-03-15T22:02:29.503Z,99.90
2019-03-15T22:06:34.490Z,99.90
2019-03-15T22:10:39.458Z,99.90
2019-03-15T22:14:44.454Z,99.90
2019-03-15T22:18:49.450Z,99.90
2019-03-15T22:22:54.454Z,99.70
2019-03-15T22:26:59.432Z,99.30
2019-03-15T22:31:15.978Z,99.10
2019-03-15T22:35:11.406Z,99.10
2019-03-15T22:39:16.361Z,98.90
2019-03-15T22:43:21.353Z,98.70
2019-03-15T22:47:26.356Z,98.70
2019-03-15T22:51:31.349Z,98.30
2019-03-15T22:55:36.322Z,97.90
2019-03-15T22:59:41.333Z,97.10
2019-03-15T23:03:46.320Z,96.90
2019-03-15T23:07:51.321Z,95.20
2019-03-15T23:11:56.312Z,92.60
2019-03-15T23:16:02.878Z,91.60
2019-03-15T23:20:12.074Z,91.10
2019-03-15T23:24:17.185Z,91.30
2019-03-15T23:28:22.180Z,91.50
2019-03-15T23:32:27.261Z,91.40
2019-03-15T23:36:32.272Z,90.80
2019-03-15T23:40:37.256Z,89.70
2019-03-15T23:44:42.250Z,89.90
2019-03-15T23:48:47.226Z,90.00
2019-03-15T23:52:52.232Z,90.20
2019-03-15T23:56:57.242Z,90.50
